Time;durP1;ratioP1;P1;durP2;ratioP2;P2;SDS_P1;SDS_P2;PMS_P1;PMS_P2;Temp;Humidity;BMP_temperature;BMP_pressure;BME280_temperature;BME280_humidity;BME280_pressure;Samples;Min_cycle;Max_cycle;Signal;HPM_P1;HPM_P2
2022/04/29 00:01:07;;;;;;;;;28.00;25.75;;;;;;;;6486906;39;8953;-59
2022/04/29 00:08:19;;;;;;;;;23.00;22.67;;;;;;;;6487280;39;8900;-59
2022/04/29 00:15:34;;;;;;;;;33.00;27.67;;;;;;;;6489170;46;9057;-59
2022/04/29 00:29:25;;;;;;;;;32.00;29.50;;;;;;;;6488537;46;8984;-58
2022/04/29 00:36:02;;;;;;;;;37.25;33.75;;;;;;;;6489026;31;8986;-59
2022/04/29 00:43:39;;;;;;;;;31.50;27.75;;;;;;;;6492713;31;9087;-58
2022/04/29 00:50:50;;;;;;;;;30.75;27.75;;;;;;;;6493885;39;8923;-58
2022/04/29 00:58:14;;;;;;;;;26.25;23.75;;;;;;;;6492621;31;9052;-60
2022/04/29 01:05:25;;;;;;;;;30.75;28.50;;;;;;;;6491796;39;8946;-59
2022/04/29 01:19:33;;;;;;;;;36.50;33.75;;;;;;;;6490563;39;8958;-60
2022/04/29 01:33:10;;;;;;;;;34.50;31.25;;;;;;;;6491858;31;8906;-58
2022/04/29 01:39:58;;;;;;;;;33.00;31.00;;;;;;;;6490542;46;8952;-58
2022/04/29 01:53:19;;;;;;;;;31.50;30.75;;;;;;;;6490826;39;8959;-59
2022/04/29 02:00:18;;;;;;;;;28.25;27.50;;;;;;;;6493055;39;8899;-59
2022/04/29 02:07:17;;;;;;;;;30.75;29.75;;;;;;;;6492288;39;9002;-58
2022/04/29 02:14:23;;;;;;;;;30.00;26.00;;;;;;;;6492250;39;8974;-60
2022/04/29 02:20:49;;;;;;;;;30.50;28.75;;;;;;;;6493147;39;8908;-60
2022/04/29 02:28:37;;;;;;;;;31.50;29.00;;;;;;;;6492000;39;8949;-59
2022/04/29 02:36:01;;;;;;;;;30.50;27.75;;;;;;;;6492717;39;9080;-59
2022/04/29 02:43:03;;;;;;;;;32.50;31.75;;;;;;;;6493267;39;8859;-59
2022/04/29 02:50:26;;;;;;;;;37.50;29.50;;;;;;;;6489293;39;8975;-59
2022/04/29 02:57:31;;;;;;;;;31.25;28.50;;;;;;;;6489403;31;9058;-59
2022/04/29 03:04:48;;;;;;;;;37.25;34.00;;;;;;;;6489693;31;9422;-60
2022/04/29 03:13:17;;;;;;;;;35.75;32.50;;;;;;;;6488414;47;9065;-59
2022/04/29 03:20:24;;;;;;;;;38.25;31.50;;;;;;;;6491266;39;8943;-59
2022/04/29 03:26:43;;;;;;;;;36.25;32.75;;;;;;;;6492477;39;8899;-58
2022/04/29 03:33:24;;;;;;;;;33.50;30.50;;;;;;;;6490164;39;8908;-59
2022/04/29 03:41:17;;;;;;;;;36.50;34.50;;;;;;;;6491827;46;8934;-60
2022/04/29 03:56:27;;;;;;;;;19.75;18.50;;;;;;;;6493482;39;8981;-59
2022/04/29 04:03:05;;;;;;;;;32.75;29.25;;;;;;;;6461356;46;9068;-63
2022/04/29 04:09:10;;;;;;;;;25.67;20.33;;;;;;;;6493148;39;8923;-64
2022/04/29 04:15:15;;;;;;;;;22.00;21.75;;;;;;;;6494068;31;8891;-63
2022/04/29 04:21:19;;;;;;;;;11.00;11.00;;;;;;;;6493137;39;8955;-63
2022/04/29 04:27:23;;;;;;;;;6.33;6.00;;;;;;;;6492820;46;8891;-63
2022/04/29 10:07:11;;;;;;;;;8.33;8.33;;;;;;;;6489728;46;9054;-63
2022/04/29 10:13:18;;;;;;;;;8.33;8.00;;;;;;;;6489428;31;8931;-63
2022/04/29 10:26:11;;;;;;;;;8.33;8.33;;;;;;;;6491887;39;8969;-65
2022/04/29 10:32:13;;;;;;;;;6.00;5.33;;;;;;;;6492000;46;8851;-64
2022/04/29 10:38:32;;;;;;;;;13.33;11.33;;;;;;;;6489125;46;8931;-64
2022/04/29 10:45:00;;;;;;;;;19.67;16.33;;;;;;;;6488972;31;8966;-64
2022/04/29 10:51:10;;;;;;;;;29.00;27.00;;;;;;;;6488601;46;8990;-67
2022/04/29 10:57:37;;;;;;;;;8.00;4.00;;;;;;;;6489571;39;8919;-65
2022/04/29 11:03:44;;;;;;;;;15.33;14.33;;;;;;;;6487788;39;9641;-64
2022/04/29 11:09:49;;;;;;;;;7.67;5.67;;;;;;;;6488002;39;8966;-65
2022/04/29 11:15:52;;;;;;;;;10.00;8.33;;;;;;;;6487283;46;8940;-65
2022/04/29 11:28:51;;;;;;;;;9.33;9.33;;;;;;;;6487995;39;8908;-63
2022/04/29 11:35:23;;;;;;;;;4.33;4.33;;;;;;;;6485775;31;8976;-63
2022/04/29 11:41:29;;;;;;;;;3.67;3.67;;;;;;;;6487823;39;8920;-63
2022/04/29 11:47:33;;;;;;;;;7.33;5.00;;;;;;;;6487920;31;8928;-64
2022/04/29 11:53:59;;;;;;;;;5.00;5.00;;;;;;;;6487232;47;9122;-64
2022/04/29 12:00:06;;;;;;;;;4.00;2.00;;;;;;;;6487545;39;9070;-64
2022/04/29 12:06:16;;;;;;;;;4.25;4.25;;;;;;;;6488588;39;9081;-63
2022/04/29 12:12:27;;;;;;;;;5.25;4.50;;;;;;;;6488856;39;8966;-66
2022/04/29 12:18:42;;;;;;;;;5.00;5.00;;;;;;;;6488960;39;8978;-64
2022/04/29 12:24:45;;;;;;;;;12.50;11.25;;;;;;;;6488561;31;8944;-63
2022/04/29 12:37:26;;;;;;;;;5.67;3.33;;;;;;;;6487466;46;8885;-64
2022/04/29 12:43:40;;;;;;;;;6.33;4.33;;;;;;;;6488572;39;8993;-63
2022/04/29 12:49:43;;;;;;;;;12.67;10.33;;;;;;;;6489040;31;8985;-63
2022/04/29 12:55:53;;;;;;;;;6.67;5.33;;;;;;;;6489620;46;8940;-63
2022/04/29 13:02:05;;;;;;;;;17.33;15.00;;;;;;;;6487863;46;9010;-61
2022/04/29 13:08:14;;;;;;;;;4.33;4.33;;;;;;;;6488321;39;8971;-64
2022/04/29 13:14:18;;;;;;;;;32.67;27.33;;;;;;;;6488277;39;9083;-63
2022/04/29 13:20:21;;;;;;;;;14.00;13.33;;;;;;;;6489500;39;8974;-63
2022/04/29 13:26:23;;;;;;;;;6.00;6.00;;;;;;;;6488039;39;8932;-62
2022/04/29 13:32:26;;;;;;;;;5.67;5.67;;;;;;;;6488890;39;8975;-65
2022/04/29 13:38:29;;;;;;;;;7.00;7.00;;;;;;;;6489309;31;8992;-64
2022/04/29 13:44:35;;;;;;;;;12.67;11.67;;;;;;;;6488382;39;9642;-65
2022/04/29 13:50:39;;;;;;;;;8.00;7.00;;;;;;;;6490860;31;8941;-63
2022/04/29 13:56:44;;;;;;;;;16.67;16.67;;;;;;;;6491448;39;9306;-65
2022/04/29 14:02:47;;;;;;;;;9.00;9.00;;;;;;;;6491248;39;9596;-63
2022/04/29 14:08:51;;;;;;;;;6.67;6.67;;;;;;;;6491828;46;8968;-64
2022/04/29 14:14:58;;;;;;;;;7.67;6.00;;;;;;;;6491551;31;8964;-63
2022/04/29 14:21:00;;;;;;;;;6.33;6.33;;;;;;;;6491680;39;9039;-64
2022/04/29 14:27:04;;;;;;;;;4.00;4.00;;;;;;;;6491818;39;9531;-64
2022/04/29 14:33:07;;;;;;;;;4.00;4.00;;;;;;;;6491554;31;8959;-66
2022/04/29 14:39:09;;;;;;;;;7.33;7.33;;;;;;;;6491111;46;8899;-65
2022/04/29 14:45:12;;;;;;;;;3.00;3.00;;;;;;;;6490922;39;8900;-64
2022/04/29 14:51:16;;;;;;;;;4.33;4.33;;;;;;;;6491991;39;8879;-64
2022/04/29 14:57:18;;;;;;;;;4.00;4.00;;;;;;;;6491957;31;8895;-64
2022/04/29 15:03:22;;;;;;;;;6.00;4.00;;;;;;;;6490827;46;8936;-66
2022/04/29 15:15:51;;;;;;;;;9.00;9.00;;;;;;;;6492146;39;9555;-64
2022/04/29 15:21:54;;;;;;;;;9.00;9.00;;;;;;;;6491004;39;8951;-64
2022/04/29 15:27:58;;;;;;;;;8.00;8.00;;;;;;;;6490138;39;8926;-64
2022/04/29 15:34:01;;;;;;;;;4.00;4.00;;;;;;;;6491748;31;8868;-64
2022/04/29 15:40:05;;;;;;;;;7.67;7.67;;;;;;;;6492835;31;9674;-64
2022/04/29 15:46:10;;;;;;;;;6.33;6.33;;;;;;;;6492630;39;9319;-65
2022/04/29 15:52:12;;;;;;;;;6.67;6.67;;;;;;;;6492758;31;8941;-64
2022/04/29 15:58:15;;;;;;;;;7.00;7.00;;;;;;;;6491844;46;8910;-64
2022/04/29 16:04:19;;;;;;;;;8.00;6.67;;;;;;;;6492939;39;8989;-64
2022/04/29 16:10:23;;;;;;;;;11.67;9.67;;;;;;;;6492672;39;8954;-64
2022/04/29 16:16:30;;;;;;;;;5.00;5.00;;;;;;;;6492267;39;8839;-64
2022/04/29 16:28:54;;;;;;;;;8.33;8.33;;;;;;;;6492284;39;8883;-65
2022/04/29 16:34:59;;;;;;;;;8.33;8.33;;;;;;;;6492928;39;8892;-63
2022/04/29 16:41:05;;;;;;;;;7.67;7.67;;;;;;;;6492473;39;8911;-63
2022/04/29 16:47:09;;;;;;;;;13.33;12.00;;;;;;;;6492082;39;8938;-64
2022/04/29 16:53:11;;;;;;;;;9.00;9.00;;;;;;;;6492139;46;8989;-64
2022/04/29 16:59:14;;;;;;;;;10.00;10.00;;;;;;;;6492022;39;8868;-65
2022/04/29 17:05:18;;;;;;;;;9.00;6.33;;;;;;;;6492287;39;8979;-65
2022/04/29 17:11:22;;;;;;;;;7.33;7.33;;;;;;;;6492064;39;8993;-63
2022/04/29 17:17:25;;;;;;;;;9.33;7.33;;;;;;;;6491777;46;8957;-65
2022/04/29 17:23:28;;;;;;;;;6.67;6.67;;;;;;;;6493581;39;8924;-65
2022/04/29 17:29:32;;;;;;;;;7.00;7.00;;;;;;;;6492323;39;9524;-62
2022/04/29 17:35:35;;;;;;;;;7.67;7.00;;;;;;;;6493492;31;8867;-67
2022/04/29 17:47:58;;;;;;;;;11.25;8.00;;;;;;;;6492039;39;9577;-65
2022/04/29 17:54:00;;;;;;;;;9.50;9.50;;;;;;;;6492519;39;8865;-64
2022/04/29 18:00:07;;;;;;;;;10.00;10.00;;;;;;;;6491582;39;8886;-64
2022/04/29 18:06:18;;;;;;;;;11.00;9.33;;;;;;;;6492779;39;9588;-63
2022/04/29 18:12:23;;;;;;;;;10.33;10.33;;;;;;;;6490678;39;8912;-65
2022/04/29 18:18:27;;;;;;;;;13.25;12.00;;;;;;;;6491602;39;8921;-65
2022/04/29 18:24:30;;;;;;;;;12.00;10.33;;;;;;;;6491777;39;8969;-65
2022/04/29 18:30:35;;;;;;;;;11.67;11.00;;;;;;;;6491254;46;9058;-65
2022/04/29 18:36:38;;;;;;;;;17.00;15.33;;;;;;;;6491874;39;8848;-63
2022/04/29 18:42:57;;;;;;;;;13.00;12.67;;;;;;;;6490799;46;8891;-62
2022/04/29 18:49:00;;;;;;;;;11.00;11.00;;;;;;;;6492068;39;8821;-64
2022/04/29 18:55:04;;;;;;;;;11.50;11.50;;;;;;;;6491368;39;9056;-64
2022/04/29 19:01:06;;;;;;;;;13.25;13.00;;;;;;;;6491112;39;8884;-66
2022/04/29 19:07:09;;;;;;;;;16.00;14.75;;;;;;;;6491902;39;9076;-63
2022/04/29 19:13:15;;;;;;;;;16.00;13.67;;;;;;;;6492647;39;8926;-64
2022/04/29 19:19:17;;;;;;;;;16.75;14.25;;;;;;;;6495409;46;8883;-63
2022/04/29 19:25:19;;;;;;;;;13.25;13.00;;;;;;;;6494888;46;8976;-64
2022/04/29 19:31:22;;;;;;;;;16.75;13.00;;;;;;;;6494832;46;8856;-65
2022/04/29 19:37:26;;;;;;;;;15.75;15.75;;;;;;;;6495629;31;8886;-66
2022/04/29 19:43:28;;;;;;;;;16.75;16.75;;;;;;;;6494375;31;9064;-63
2022/04/29 19:49:30;;;;;;;;;12.00;11.25;;;;;;;;6495576;46;8863;-64
2022/04/29 19:55:35;;;;;;;;;10.75;8.50;;;;;;;;6495700;31;8889;-64
2022/04/29 20:08:02;;;;;;;;;11.25;10.50;;;;;;;;6494674;46;8932;-64
2022/04/29 20:14:05;;;;;;;;;11.25;11.25;;;;;;;;6495053;39;9094;-65
2022/04/29 20:20:14;;;;;;;;;15.25;14.25;;;;;;;;6495811;39;8936;-65
2022/04/29 20:26:17;;;;;;;;;11.75;11.75;;;;;;;;6492807;39;8862;-64
2022/04/29 20:32:20;;;;;;;;;10.00;10.00;;;;;;;;6492833;39;9557;-64
2022/04/29 20:38:25;;;;;;;;;16.75;12.00;;;;;;;;6491530;46;8890;-64
2022/04/29 20:44:30;;;;;;;;;15.00;15.00;;;;;;;;6492478;39;9536;-64
2022/04/29 20:50:36;;;;;;;;;17.25;16.00;;;;;;;;6492744;39;8902;-64
2022/04/29 20:56:39;;;;;;;;;16.75;15.00;;;;;;;;6492817;31;9515;-63
2022/04/29 21:02:43;;;;;;;;;10.25;10.25;;;;;;;;6492496;46;9029;-66
2022/04/29 21:09:06;;;;;;;;;18.00;16.25;;;;;;;;6492810;39;9695;-63
2022/04/29 21:15:08;;;;;;;;;17.00;15.25;;;;;;;;6492650;39;8856;-64
2022/04/29 21:21:10;;;;;;;;;13.25;12.00;;;;;;;;6493149;39;8910;-65
2022/04/29 21:27:14;;;;;;;;;15.75;13.00;;;;;;;;6492648;39;8922;-63
2022/04/29 21:33:16;;;;;;;;;13.00;11.00;;;;;;;;6492356;39;8942;-63
2022/04/29 21:39:19;;;;;;;;;16.25;14.50;;;;;;;;6491471;39;8872;-63
2022/04/29 21:45:24;;;;;;;;;13.75;11.00;;;;;;;;6492562;39;8934;-63
2022/04/29 21:51:28;;;;;;;;;10.75;10.75;;;;;;;;6491775;39;8870;-63
2022/04/29 21:57:33;;;;;;;;;11.50;11.50;;;;;;;;6490887;31;8887;-66
2022/04/29 22:03:40;;;;;;;;;11.00;11.00;;;;;;;;6491911;39;8939;-64
2022/04/29 22:09:43;;;;;;;;;12.25;12.25;;;;;;;;6492093;39;8887;-65
2022/04/29 22:15:47;;;;;;;;;13.50;13.00;;;;;;;;6492487;31;8892;-64
2022/04/29 22:21:49;;;;;;;;;13.25;12.25;;;;;;;;6491168;31;8886;-63
2022/04/29 22:27:51;;;;;;;;;15.50;15.50;;;;;;;;6491744;39;8880;-63
2022/04/29 22:33:53;;;;;;;;;13.00;13.00;;;;;;;;6493192;31;9554;-64
2022/04/29 22:39:56;;;;;;;;;14.25;14.25;;;;;;;;6491457;39;9567;-65
2022/04/29 22:45:59;;;;;;;;;18.00;14.75;;;;;;;;6492100;39;8907;-64
2022/04/29 22:52:03;;;;;;;;;13.25;11.50;;;;;;;;6491950;39;8832;-64
2022/04/29 22:58:06;;;;;;;;;18.75;17.00;;;;;;;;6491271;46;8914;-63
2022/04/29 23:04:10;;;;;;;;;14.75;13.50;;;;;;;;6491026;46;8913;-64
2022/04/29 23:10:17;;;;;;;;;18.25;14.50;;;;;;;;6490321;47;8906;-64
2022/04/29 23:16:22;;;;;;;;;15.50;15.50;;;;;;;;6490246;47;8900;-65
2022/04/29 23:22:24;;;;;;;;;16.75;14.50;;;;;;;;6490242;39;8923;-64
2022/04/29 23:28:28;;;;;;;;;16.00;16.00;;;;;;;;6490001;39;8911;-63
2022/04/29 23:34:30;;;;;;;;;16.00;16.00;;;;;;;;6490070;31;8883;-63
2022/04/29 23:40:32;;;;;;;;;18.00;17.00;;;;;;;;6489115;47;8887;-65
2022/04/29 23:46:34;;;;;;;;;18.25;16.75;;;;;;;;6489467;47;10103;-64
2022/04/29 23:52:37;;;;;;;;;21.75;20.00;;;;;;;;6489567;39;8860;-63
2022/04/29 23:58:40;;;;;;;;;21.50;16.50;;;;;;;;6489989;39;8981;-64
